METAR Formatted Surface Weather Observation
Issued by NWS

Home | Current Version | Previous Version | Text Only | Print | Product List | Glossary On
Versions: 1
000
SAUS46 KSTO 251002 COR
MTRBLU
METAR KBLU 250952Z AUTO 00000KT 10SM CLR 10/M04 A3009 RMK AO2 SLP128
T01001044 TSNO



USA.gov is the U.S. government's official web portal to all federal, state and local government web resources and services.